createdAt,value
2018-08-20T00:01:45.467Z,7.93
2018-08-20T00:04:13.565Z,6.77
2018-08-20T00:06:51.060Z,9.30
2018-08-20T00:09:21.592Z,7.57
2018-08-20T00:11:49.985Z,7.60
2018-08-20T00:14:20.740Z,7.67
2018-08-20T00:16:48.893Z,7.23
2018-08-20T00:19:17.141Z,9.07
2018-08-20T00:21:45.821Z,7.83
2018-08-20T00:24:14.032Z,10.37
2018-08-20T00:26:42.881Z,8.80
2018-08-20T00:29:10.995Z,7.87
2018-08-20T00:31:39.179Z,9.03
2018-08-20T00:34:07.332Z,8.57
2018-08-20T00:36:35.451Z,8.67
2018-08-20T00:39:05.161Z,13.33
2018-08-20T00:41:33.257Z,8.93
2018-08-20T00:44:01.340Z,8.03
2018-08-20T00:46:29.510Z,11.30
2018-08-20T00:48:57.581Z,8.63
2018-08-20T00:51:25.754Z,11.60
2018-08-20T00:53:53.877Z,10.20
2018-08-20T00:56:22.041Z,12.67
2018-08-20T00:58:50.273Z,10.00
2018-08-20T01:01:18.489Z,14.97
2018-08-20T01:03:46.617Z,10.10
2018-08-20T01:06:14.790Z,10.73
2018-08-20T01:08:42.905Z,11.77
2018-08-20T01:11:11.000Z,11.03
2018-08-20T01:13:39.113Z,11.63
2018-08-20T01:16:07.206Z,10.87
2018-08-20T01:18:35.374Z,12.57
2018-08-20T01:21:03.468Z,9.67
2018-08-20T01:23:31.540Z,9.00
2018-08-20T01:25:59.697Z,10.50
2018-08-20T01:28:27.802Z,13.27
2018-08-20T01:30:55.914Z,11.97
2018-08-20T01:33:24.041Z,10.33
2018-08-20T01:35:52.189Z,8.70
2018-08-20T01:38:20.395Z,11.43
2018-08-20T01:40:48.520Z,10.87
2018-08-20T01:43:16.754Z,12.73
2018-08-20T01:45:44.905Z,12.13
2018-08-20T01:48:13.009Z,10.03
2018-08-20T01:50:41.121Z,10.87
2018-08-20T01:53:09.203Z,10.47
2018-08-20T01:55:37.340Z,10.37
2018-08-20T01:58:05.434Z,10.93
2018-08-20T02:00:33.535Z,10.27
2018-08-20T02:03:02.591Z,8.53
2018-08-20T02:05:30.690Z,7.70
2018-08-20T02:07:58.889Z,7.60
2018-08-20T02:10:27.243Z,8.63
2018-08-20T02:12:55.482Z,8.27
2018-08-20T02:15:24.196Z,11.23
2018-08-20T02:17:52.366Z,5.47
2018-08-20T02:20:20.529Z,6.53
2018-08-20T02:22:48.729Z,5.37
2018-08-20T02:25:16.865Z,7.00
2018-08-20T02:27:44.957Z,6.50
2018-08-20T02:30:13.061Z,6.73
2018-08-20T02:32:41.590Z,4.67
2018-08-20T02:35:10.344Z,7.10
2018-08-20T02:37:43.936Z,5.37
2018-08-20T02:40:12.098Z,5.93
2018-08-20T02:42:40.578Z,5.30
2018-08-20T02:45:11.185Z,6.27
2018-08-20T02:47:39.677Z,5.13
2018-08-20T02:50:08.553Z,5.97
2018-08-20T02:52:36.668Z,6.00
2018-08-20T02:55:05.417Z,9.73
2018-08-20T02:57:33.670Z,8.33
2018-08-20T03:00:01.813Z,10.40
2018-08-20T03:02:30.030Z,8.63
2018-08-20T03:04:58.432Z,8.73
2018-08-20T03:07:26.631Z,9.93
2018-08-20T03:09:54.809Z,8.33
2018-08-20T03:12:22.976Z,8.93
2018-08-20T03:14:51.128Z,10.00
2018-08-20T03:17:19.304Z,9.27
2018-08-20T03:19:47.380Z,9.83
2018-08-20T03:22:15.601Z,9.70
2018-08-20T03:24:44.310Z,14.07
2018-08-20T03:27:12.480Z,11.47
2018-08-20T03:29:40.704Z,8.90
2018-08-20T03:32:08.946Z,11.33
2018-08-20T03:34:37.041Z,12.17
2018-08-20T03:37:05.183Z,11.77
2018-08-20T03:39:33.406Z,12.50
2018-08-20T03:42:01.524Z,13.70
2018-08-20T03:44:29.655Z,12.07
2018-08-20T03:46:57.817Z,11.37
2018-08-20T03:49:25.944Z,10.30
2018-08-20T03:51:54.127Z,11.30
2018-08-20T03:54:22.414Z,12.03
2018-08-20T03:56:50.588Z,14.00
2018-08-20T03:59:30.735Z,11.63
2018-08-20T04:02:00.149Z,12.10
2018-08-20T04:04:28.844Z,13.97
2018-08-20T04:06:57.449Z,12.07
2018-08-20T04:09:25.743Z,13.07
2018-08-20T04:12:01.380Z,14.93
2018-08-20T04:14:29.532Z,15.60
2018-08-20T04:16:58.389Z,13.03
2018-08-20T04:19:26.788Z,14.90
2018-08-20T04:21:55.012Z,14.40
2018-08-20T04:24:23.160Z,13.20
2018-08-20T04:26:51.668Z,13.77
2018-08-20T04:29:20.537Z,13.80
2018-08-20T04:31:48.700Z,15.87
2018-08-20T04:34:16.793Z,13.83
2018-08-20T04:36:44.960Z,14.80
2018-08-20T04:39:13.084Z,13.67
2018-08-20T04:41:41.204Z,16.03
2018-08-20T04:44:09.609Z,12.67
2018-08-20T04:46:37.713Z,15.40
2018-08-20T04:49:05.933Z,13.67
2018-08-20T04:51:34.120Z,12.63
2018-08-20T04:54:02.169Z,16.00
2018-08-20T04:56:30.311Z,12.47
2018-08-20T04:58:58.537Z,14.63
2018-08-20T05:01:26.702Z,16.20
2018-08-20T05:03:55.303Z,15.33
2018-08-20T05:06:23.577Z,13.50
2018-08-20T05:08:51.894Z,16.93
2018-08-20T05:11:20.753Z,15.63
2018-08-20T05:13:48.885Z,14.07
2018-08-20T05:16:17.392Z,11.03
2018-08-20T05:18:45.566Z,15.37
2018-08-20T05:21:13.663Z,14.93
2018-08-20T05:23:41.786Z,11.37
2018-08-20T05:26:09.919Z,11.13
2018-08-20T05:28:38.025Z,7.77
2018-08-20T05:31:06.252Z,13.63
2018-08-20T05:33:34.515Z,11.27
2018-08-20T05:36:02.724Z,14.20
2018-08-20T05:38:30.946Z,10.07
2018-08-20T05:40:59.253Z,10.57
2018-08-20T05:43:27.605Z,12.27
2018-08-20T05:45:55.988Z,11.13
2018-08-20T05:48:24.175Z,12.27
2018-08-20T05:50:52.328Z,7.40
2018-08-20T05:53:20.513Z,9.93
2018-08-20T05:55:48.856Z,8.07
2018-08-20T05:58:17.004Z,8.80
2018-08-20T06:00:45.293Z,8.30
2018-08-20T06:03:13.453Z,8.03
2018-08-20T06:05:41.644Z,9.20
2018-08-20T06:08:09.754Z,9.83
2018-08-20T06:10:37.915Z,9.83
2018-08-20T06:13:06.061Z,8.27
2018-08-20T06:15:34.282Z,7.50
2018-08-20T06:18:02.433Z,10.17
2018-08-20T06:20:30.642Z,6.90
2018-08-20T06:22:58.809Z,7.87
2018-08-20T06:25:27.128Z,8.47
2018-08-20T06:27:55.450Z,9.90
2018-08-20T06:30:23.787Z,5.37
2018-08-20T06:32:51.969Z,10.40
2018-08-20T06:35:20.233Z,6.50
2018-08-20T06:37:48.454Z,6.10
2018-08-20T06:40:16.586Z,8.97
2018-08-20T06:42:44.677Z,8.00
2018-08-20T06:45:15.033Z,9.37
2018-08-20T06:47:43.929Z,7.93
2018-08-20T06:50:12.179Z,10.33
2018-08-20T06:52:41.128Z,8.30
2018-08-20T06:55:09.321Z,7.13
2018-08-20T06:57:37.433Z,8.93
2018-08-20T07:00:07.104Z,7.80
2018-08-20T07:02:35.329Z,7.70
2018-08-20T07:05:03.957Z,7.60
2018-08-20T07:07:32.072Z,7.57
2018-08-20T07:10:00.232Z,10.73
2018-08-20T07:12:28.426Z,10.30
2018-08-20T07:14:56.553Z,10.77
2018-08-20T07:17:24.769Z,7.40
2018-08-20T07:19:52.922Z,6.10
2018-08-20T07:22:21.414Z,9.10
2018-08-20T07:24:49.697Z,5.03
2018-08-20T07:27:24.896Z,5.47
2018-08-20T07:29:54.469Z,3.53
2018-08-20T07:32:22.681Z,4.13
2018-08-20T07:34:50.853Z,4.20
2018-08-20T07:37:19.066Z,4.13
2018-08-20T07:39:48.267Z,3.17
2018-08-20T07:42:16.453Z,4.47
2018-08-20T07:44:45.344Z,4.40
2018-08-20T07:47:13.451Z,3.73
2018-08-20T07:49:41.677Z,5.20
2018-08-20T07:52:10.612Z,5.60
2018-08-20T07:54:39.562Z,5.67
2018-08-20T07:57:09.015Z,3.33
2018-08-20T07:59:37.208Z,5.10
2018-08-20T08:02:05.548Z,5.17
2018-08-20T08:04:33.648Z,2.43
2018-08-20T08:07:01.757Z,6.40
2018-08-20T08:09:29.929Z,5.07
2018-08-20T08:11:58.930Z,3.30
2018-08-20T08:14:27.109Z,2.83
2018-08-20T08:16:55.406Z,3.80
2018-08-20T08:19:23.548Z,4.63
2018-08-20T08:21:51.888Z,3.50
2018-08-20T08:24:20.013Z,4.17
2018-08-20T08:26:48.149Z,2.80
2018-08-20T08:29:16.506Z,3.90
2018-08-20T08:31:44.613Z,4.47
2018-08-20T08:34:12.749Z,2.60
2018-08-20T08:36:40.888Z,2.87
2018-08-20T08:39:10.493Z,4.60
2018-08-20T08:41:38.872Z,3.07
2018-08-20T08:44:07.113Z,2.67
2018-08-20T08:46:35.276Z,2.63
2018-08-20T08:49:03.449Z,5.23
2018-08-20T08:51:31.576Z,4.37
2018-08-20T08:53:59.680Z,5.30
2018-08-20T08:56:27.792Z,1.30
2018-08-20T08:58:55.934Z,3.13
2018-08-20T09:01:24.114Z,7.50
2018-08-20T09:03:52.289Z,4.30
2018-08-20T09:06:20.449Z,2.47
2018-08-20T09:08:48.558Z,2.90
2018-08-20T09:11:16.849Z,4.90
2018-08-20T09:13:45.053Z,4.00
2018-08-20T09:16:13.158Z,4.30
2018-08-20T09:18:41.256Z,2.37
2018-08-20T09:21:09.457Z,3.23
2018-08-20T09:23:37.565Z,2.97
2018-08-20T09:26:05.701Z,7.83
2018-08-20T09:28:33.887Z,5.57
2018-08-20T09:31:02.005Z,3.70
2018-08-20T09:33:30.154Z,4.03
2018-08-20T09:35:58.319Z,3.33
2018-08-20T09:38:26.559Z,3.07
2018-08-20T09:40:54.715Z,2.20
2018-08-20T09:43:22.805Z,1.83
2018-08-20T09:45:51.072Z,5.73
2018-08-20T09:48:19.186Z,4.70
2018-08-20T09:50:47.296Z,2.73
2018-08-20T09:53:15.384Z,1.50
2018-08-20T09:55:43.478Z,3.63
2018-08-20T09:58:11.602Z,3.30
2018-08-20T10:00:40.342Z,2.73
2018-08-20T10:03:09.392Z,3.20
2018-08-20T10:05:37.532Z,2.27
2018-08-20T10:08:05.630Z,3.37
2018-08-20T10:10:33.713Z,1.83
2018-08-20T10:13:01.825Z,4.37
2018-08-20T10:15:29.937Z,2.87
2018-08-20T10:17:58.144Z,3.00
2018-08-20T10:20:26.237Z,8.63
2018-08-20T10:22:54.569Z,2.37
2018-08-20T10:25:23.048Z,3.13
2018-08-20T10:27:51.299Z,3.60
2018-08-20T10:30:19.469Z,3.33
2018-08-20T10:32:47.610Z,2.10
2018-08-20T10:35:15.941Z,3.03
2018-08-20T10:37:44.123Z,1.83
2018-08-20T10:40:12.137Z,6.30
2018-08-20T10:42:40.229Z,5.83
2018-08-20T10:45:14.413Z,2.50
2018-08-20T10:47:43.659Z,3.90
2018-08-20T10:50:16.176Z,2.47
2018-08-20T10:52:45.869Z,4.93
2018-08-20T10:55:14.219Z,3.30
2018-08-20T10:57:42.981Z,2.33
2018-08-20T11:00:11.815Z,2.93
2018-08-20T11:02:40.145Z,2.07
2018-08-20T11:05:11.479Z,5.40
2018-08-20T11:07:39.908Z,2.50
2018-08-20T11:10:08.121Z,2.50
2018-08-20T11:12:36.182Z,3.87
2018-08-20T11:15:05.227Z,2.97
2018-08-20T11:17:33.333Z,4.03
2018-08-20T11:20:01.480Z,7.93
2018-08-20T11:22:29.577Z,1.80
2018-08-20T11:24:57.753Z,2.67
2018-08-20T11:27:26.142Z,3.03
2018-08-20T11:29:54.362Z,3.40
2018-08-20T11:32:22.505Z,1.37
2018-08-20T11:34:50.601Z,3.13
2018-08-20T11:37:18.741Z,6.03
2018-08-20T11:39:46.825Z,3.63
2018-08-20T11:42:14.957Z,6.10
2018-08-20T11:44:43.066Z,6.47
2018-08-20T11:47:11.177Z,11.63
2018-08-20T11:49:39.331Z,3.37
2018-08-20T11:52:07.672Z,2.77
2018-08-20T11:54:35.859Z,6.03
2018-08-20T11:57:03.945Z,3.50
2018-08-20T11:59:32.123Z,3.33
2018-08-20T12:02:00.583Z,7.97
2018-08-20T12:04:28.795Z,11.23
2018-08-20T12:06:57.157Z,4.17
2018-08-20T12:09:25.322Z,4.50
2018-08-20T12:11:53.499Z,11.23
2018-08-20T12:14:21.796Z,7.27
2018-08-20T12:16:49.957Z,12.00
2018-08-20T12:19:18.130Z,11.20
2018-08-20T12:21:46.255Z,7.80
2018-08-20T12:24:15.023Z,9.47
2018-08-20T12:26:43.192Z,7.73
2018-08-20T12:29:11.359Z,4.07
2018-08-20T12:31:39.437Z,7.07
2018-08-20T12:34:07.714Z,7.10
2018-08-20T12:36:36.369Z,9.37
2018-08-20T12:39:05.843Z,10.50
2018-08-20T12:41:33.968Z,10.93
2018-08-20T12:44:02.174Z,3.80
2018-08-20T12:46:30.313Z,10.00
2018-08-20T12:48:58.537Z,6.23
2018-08-20T12:51:27.237Z,7.73
2018-08-20T12:53:55.350Z,10.20
2018-08-20T12:56:23.532Z,7.37
2018-08-20T12:58:52.873Z,9.60
2018-08-20T13:01:21.207Z,9.47
2018-08-20T13:03:49.991Z,9.67
2018-08-20T13:06:18.125Z,7.03
2018-08-20T13:08:47.337Z,4.30
2018-08-20T13:11:15.811Z,6.70
2018-08-20T13:13:44.024Z,6.90
2018-08-20T13:16:12.166Z,4.03
2018-08-20T13:18:40.366Z,9.13
2018-08-20T13:21:08.668Z,5.60
2018-08-20T13:23:36.870Z,9.13
2018-08-20T13:26:05.044Z,8.63
2018-08-20T13:28:33.476Z,7.47
2018-08-20T13:31:02.034Z,8.63
2018-08-20T13:33:30.342Z,9.50
2018-08-20T13:35:58.556Z,8.70
2018-08-20T13:38:26.769Z,8.40
2018-08-20T13:40:54.969Z,8.13
2018-08-20T13:43:23.900Z,3.07
2018-08-20T13:45:52.541Z,8.37
2018-08-20T13:48:20.934Z,6.60
2018-08-20T13:50:49.114Z,3.97
2018-08-20T13:53:17.261Z,7.57
2018-08-20T13:55:45.413Z,3.50
2018-08-20T13:58:13.629Z,7.80
2018-08-20T14:00:41.864Z,7.20
2018-08-20T14:03:10.092Z,7.47
2018-08-20T14:05:39.271Z,6.97
2018-08-20T14:08:07.657Z,5.60
2018-08-20T14:10:35.973Z,6.80
2018-08-20T14:13:04.080Z,6.57
2018-08-20T14:15:32.249Z,6.57
2018-08-20T14:18:01.446Z,7.43
2018-08-20T14:20:29.891Z,5.57
2018-08-20T14:22:59.083Z,5.67
2018-08-20T14:25:27.957Z,6.17
2018-08-20T14:27:56.217Z,5.53
2018-08-20T14:30:24.681Z,7.20
2018-08-20T14:32:53.240Z,4.90
2018-08-20T14:35:21.757Z,6.07
2018-08-20T14:37:49.977Z,5.90
2018-08-20T14:40:19.019Z,5.77
2018-08-20T14:42:47.228Z,6.87
2018-08-20T14:45:16.412Z,6.17
2018-08-20T14:47:45.267Z,7.37
2018-08-20T14:50:15.454Z,3.73
2018-08-20T14:52:43.991Z,5.20
2018-08-20T14:55:12.688Z,5.53
2018-08-20T14:57:40.820Z,4.13
2018-08-20T15:00:11.584Z,5.20
2018-08-20T15:02:39.817Z,4.63
2018-08-20T15:05:08.044Z,2.27
2018-08-20T15:07:36.366Z,2.13
2018-08-20T15:10:05.642Z,7.03
2018-08-20T15:12:34.095Z,3.70
2018-08-20T15:15:02.230Z,2.33
2018-08-20T15:17:30.411Z,5.97
2018-08-20T15:19:59.338Z,6.07
2018-08-20T15:22:27.502Z,3.80
2018-08-20T15:24:56.004Z,6.47
2018-08-20T15:27:24.159Z,8.63
2018-08-20T15:29:52.394Z,6.03
2018-08-20T15:32:20.749Z,4.53
2018-08-20T15:34:49.004Z,5.90
2018-08-20T15:37:17.169Z,3.30
2018-08-20T15:39:45.313Z,3.60
2018-08-20T15:42:13.489Z,4.97
2018-08-20T15:44:41.646Z,6.70
2018-08-20T15:47:09.852Z,4.43
2018-08-20T15:49:38.052Z,3.43
2018-08-20T15:52:06.193Z,5.57
2018-08-20T15:54:34.380Z,2.70
2018-08-20T15:57:02.569Z,5.43
2018-08-20T15:59:30.721Z,3.93
2018-08-20T16:01:58.922Z,3.90
2018-08-20T16:04:27.119Z,5.23
2018-08-20T16:06:55.332Z,4.10
2018-08-20T16:09:23.598Z,4.17
2018-08-20T16:11:51.843Z,3.00
2018-08-20T16:14:20.198Z,4.43
2018-08-20T16:16:48.330Z,6.97
2018-08-20T16:19:16.497Z,3.53
2018-08-20T16:21:44.629Z,3.17
2018-08-20T16:24:12.786Z,5.43
2018-08-20T16:26:40.960Z,3.90
2018-08-20T16:29:09.269Z,5.80
2018-08-20T16:31:37.560Z,4.37
2018-08-20T16:34:06.136Z,3.17
2018-08-20T16:36:34.572Z,4.93
2018-08-20T16:39:04.568Z,3.83
2018-08-20T16:41:32.721Z,5.40
2018-08-20T16:44:01.017Z,4.33
2018-08-20T16:46:29.251Z,5.17
2018-08-20T16:48:57.480Z,3.97
2018-08-20T16:51:25.940Z,3.80
2018-08-20T16:53:54.205Z,5.73
2018-08-20T16:56:22.483Z,3.10
2018-08-20T16:58:51.419Z,3.20
2018-08-20T17:01:19.978Z,4.07
2018-08-20T17:03:48.177Z,3.20
2018-08-20T17:06:16.496Z,5.60
2018-08-20T17:08:45.001Z,4.43
2018-08-20T17:11:13.641Z,5.13
2018-08-20T17:13:41.845Z,3.87
2018-08-20T17:16:13.143Z,4.47
2018-08-20T17:18:41.337Z,5.67
2018-08-20T17:21:09.797Z,8.40
2018-08-20T17:23:37.962Z,4.83
2018-08-20T17:26:06.751Z,6.00
2018-08-20T17:28:34.925Z,4.40
2018-08-20T17:31:06.476Z,2.40
2018-08-20T17:33:35.366Z,4.83
2018-08-20T17:36:03.689Z,4.90
2018-08-20T17:38:31.806Z,4.13
2018-08-20T17:40:59.938Z,3.50
2018-08-20T17:43:28.113Z,5.17
2018-08-20T17:45:57.493Z,4.30
2018-08-20T17:48:32.959Z,6.30
2018-08-20T17:51:01.354Z,3.10
2018-08-20T17:54:00.612Z,4.53
2018-08-20T17:56:28.762Z,3.50
2018-08-20T17:59:01.185Z,3.97
2018-08-20T18:01:31.784Z,3.40
2018-08-20T18:03:59.929Z,5.13
2018-08-20T18:06:51.660Z,4.23
2018-08-20T18:09:19.936Z,3.73
2018-08-20T18:11:55.902Z,4.30
2018-08-20T18:14:25.395Z,3.43
2018-08-20T18:16:53.552Z,4.90
2018-08-20T18:19:21.736Z,6.17
2018-08-20T18:21:49.889Z,2.33
2018-08-20T18:24:19.300Z,6.80
2018-08-20T18:26:50.065Z,4.77
2018-08-20T18:29:18.183Z,5.47
2018-08-20T18:31:49.865Z,4.63
2018-08-20T18:34:18.036Z,3.40
2018-08-20T18:36:46.105Z,9.67
2018-08-20T18:39:14.466Z,5.53
2018-08-20T18:42:02.385Z,4.47
2018-08-20T18:44:31.228Z,11.90
2018-08-20T18:46:59.418Z,8.73
2018-08-20T18:49:27.557Z,3.23
2018-08-20T18:52:03.480Z,3.60
2018-08-20T18:54:40.513Z,4.97
2018-08-20T18:57:08.765Z,6.20
2018-08-20T18:59:38.461Z,4.23
2018-08-20T19:02:08.245Z,4.87
2018-08-20T19:04:41.492Z,3.67
2018-08-20T19:07:10.990Z,5.37
2018-08-20T19:09:39.940Z,4.60
2018-08-20T19:12:08.386Z,6.43
2018-08-20T19:14:36.557Z,4.50
2018-08-20T19:17:13.089Z,3.63
2018-08-20T19:19:45.511Z,7.17
2018-08-20T19:22:18.987Z,2.50
2018-08-20T19:24:47.132Z,7.80
2018-08-20T19:27:15.257Z,3.90
2018-08-20T19:29:43.454Z,4.03
2018-08-20T19:32:11.668Z,3.40
2018-08-20T19:34:39.766Z,3.63
2018-08-20T19:37:08.281Z,5.73
2018-08-20T19:39:36.498Z,3.70
2018-08-20T19:42:05.188Z,8.77
2018-08-20T19:44:33.588Z,5.43
2018-08-20T19:47:01.896Z,5.47
2018-08-20T19:49:31.314Z,5.17
2018-08-20T19:51:59.620Z,5.80
2018-08-20T19:54:27.755Z,6.50
2018-08-20T19:56:56.184Z,5.97
2018-08-20T19:59:29.852Z,5.33
2018-08-20T20:01:57.949Z,9.30
2018-08-20T20:04:26.143Z,5.03
2018-08-20T20:06:54.316Z,8.07
2018-08-20T20:09:22.521Z,6.63
2018-08-20T20:11:51.562Z,6.50
2018-08-20T20:14:19.690Z,6.63
2018-08-20T20:16:53.164Z,6.50
2018-08-20T20:19:21.524Z,7.07
2018-08-20T20:21:49.841Z,4.13
2018-08-20T20:24:18.084Z,6.03
2018-08-20T20:26:46.250Z,4.33
2018-08-20T20:29:14.456Z,4.37
2018-08-20T20:31:43.117Z,8.10
2018-08-20T20:34:11.269Z,6.47
2018-08-20T20:36:39.408Z,6.13
2018-08-20T20:39:10.230Z,5.53
2018-08-20T20:41:38.368Z,8.43
2018-08-20T20:44:07.199Z,5.07
2018-08-20T20:46:35.414Z,8.00
2018-08-20T20:49:03.521Z,6.50
2018-08-20T20:51:31.735Z,4.70
2018-08-20T20:53:59.938Z,5.43
2018-08-20T20:56:28.065Z,4.53
2018-08-20T20:58:56.249Z,4.77
2018-08-20T21:01:24.388Z,3.73
2018-08-20T21:03:52.686Z,7.33
2018-08-20T21:06:20.805Z,8.03
2018-08-20T21:08:50.080Z,3.87
2018-08-20T21:11:19.360Z,4.63
2018-08-20T21:13:47.753Z,4.87
2018-08-20T21:16:17.471Z,5.27
2018-08-20T21:18:47.053Z,4.40
2018-08-20T21:21:16.541Z,6.00
2018-08-20T21:23:44.648Z,5.50
2018-08-20T21:26:12.773Z,4.80
2018-08-20T21:28:44.151Z,5.03
2018-08-20T21:31:12.865Z,4.90
2018-08-20T21:33:41.830Z,5.57
2018-08-20T21:36:10.449Z,2.83
2018-08-20T21:38:38.682Z,5.07
2018-08-20T21:41:06.894Z,5.43
2018-08-20T21:43:40.599Z,4.33
2018-08-20T21:46:09.256Z,4.17
2018-08-20T21:48:37.721Z,6.57
2018-08-20T21:52:08.906Z,3.83
2018-08-20T21:54:37.761Z,5.93
2018-08-20T21:57:06.348Z,5.47
2018-08-20T21:59:34.434Z,6.43
2018-08-20T22:02:02.776Z,5.13
2018-08-20T22:04:31.145Z,4.27
2018-08-20T22:06:59.893Z,3.70
2018-08-20T22:09:28.167Z,5.63
2018-08-20T22:11:57.413Z,4.63
2018-08-20T22:14:25.952Z,4.80
2018-08-20T22:16:54.090Z,5.00
2018-08-20T22:19:22.232Z,5.30
2018-08-20T22:21:50.443Z,7.03
2018-08-20T22:24:18.584Z,5.77
2018-08-20T22:26:50.954Z,2.90
2018-08-20T22:29:19.470Z,4.97
2018-08-20T22:31:53.256Z,2.87
2018-08-20T22:34:21.968Z,4.87
2018-08-20T22:36:54.574Z,3.63
2018-08-20T22:39:22.743Z,6.13
2018-08-20T22:41:50.911Z,4.67
2018-08-20T22:44:19.036Z,7.47
2018-08-20T22:46:47.216Z,3.60
2018-08-20T22:49:15.375Z,3.60
2018-08-20T22:51:43.486Z,3.43
2018-08-20T22:54:11.681Z,8.37
2018-08-20T22:56:39.834Z,3.37
2018-08-20T22:59:09.537Z,4.07
2018-08-20T23:01:37.614Z,3.00
2018-08-20T23:04:06.176Z,5.77
2018-08-20T23:06:34.409Z,3.97
2018-08-20T23:09:19.427Z,4.70
2018-08-20T23:11:47.650Z,3.27
2018-08-20T23:14:15.748Z,5.10
2018-08-20T23:16:43.888Z,4.67
2018-08-20T23:19:12.001Z,4.93
2018-08-20T23:21:41.729Z,3.57
2018-08-20T23:24:10.517Z,4.73
2018-08-20T23:26:38.680Z,6.53
2018-08-20T23:29:06.769Z,5.13
2018-08-20T23:31:34.925Z,4.13
2018-08-20T23:34:10.580Z,2.47
2018-08-20T23:36:39.057Z,6.00
2018-08-20T23:39:09.071Z,7.13
2018-08-20T23:41:37.246Z,4.03
2018-08-20T23:44:05.409Z,6.97
2018-08-20T23:46:38.510Z,3.13
2018-08-20T23:49:06.734Z,5.60
2018-08-20T23:51:34.823Z,5.07
2018-08-20T23:54:03.046Z,5.17
2018-08-20T23:56:31.144Z,4.90
2018-08-20T23:59:05.976Z,5.83
